Time;durP1;ratioP1;P1;durP2;ratioP2;P2;SDS_P1;SDS_P2;PMS_P1;PMS_P2;Temp;Humidity;BMP_temperature;BMP_pressure;BME280_temperature;BME280_humidity;BME280_pressure;Samples;Min_cycle;Max_cycle;Signal;HPM_P1;HPM_P2
2023/07/14 00:04:00;;;;;;;17.63;9.00;;;14.20;99.90;;;;;;2615437;39;20401;-78
2023/07/14 00:09:48;;;;;;;9.10;8.17;;;14.20;99.90;;;;;;2612841;54;20415;-79
2023/07/14 00:15:39;;;;;;;11.57;8.93;;;14.30;99.90;;;;;;2614582;54;20929;-77
2023/07/14 00:24:49;;;;;;;13.90;8.20;;;14.30;99.90;;;;;;2612767;54;20381;-77
2023/07/14 00:30:37;;;;;;;10.17;7.80;;;14.40;99.90;;;;;;2614824;54;20671;-77
2023/07/14 00:36:24;;;;;;;17.17;8.97;;;14.40;99.90;;;;;;2614536;54;20129;-77
2023/07/14 00:42:16;;;;;;;9.40;7.13;;;14.60;99.90;;;;;;2613922;54;20162;-76
2023/07/14 00:48:05;;;;;;;9.43;7.57;;;14.60;99.90;;;;;;2613825;54;20436;-77
2023/07/14 00:53:53;;;;;;;13.60;8.10;;;14.70;99.90;;;;;;2615659;54;20473;-76
2023/07/14 00:59:41;;;;;;;8.90;7.60;;;14.90;99.90;;;;;;2614676;54;20174;-76
2023/07/14 01:05:30;;;;;;;12.03;7.37;;;14.90;99.90;;;;;;2620264;54;20130;-84
2023/07/14 01:11:21;;;;;;;8.83;7.07;;;15.10;99.90;;;;;;2620917;54;20378;-84
2023/07/14 01:17:11;;;;;;;9.73;7.17;;;15.30;99.90;;;;;;2621366;54;20391;-83
2023/07/14 01:20:16;;;;;;;8.83;7.27;;;15.20;99.90;;;;;;2620639;54;20379;-85
2023/07/14 01:29:22;;;;;;;14.37;7.27;;;15.10;99.90;;;;;;2621402;54;20387;-84
2023/07/14 01:35:10;;;;;;;10.03;8.00;;;14.90;99.90;;;;;;2615655;39;20843;-76
2023/07/14 01:40:57;;;;;;;10.80;7.13;;;14.70;99.90;;;;;;2615081;54;20371;-77
2023/07/14 01:46:47;;;;;;;7.13;6.30;;;14.60;99.90;;;;;;2614319;54;20129;-76
2023/07/14 01:52:35;;;;;;;6.30;5.70;;;14.50;99.90;;;;;;2615631;54;20401;-78
2023/07/14 01:58:32;;;;;;;9.07;7.33;;;14.20;99.90;;;;;;2616418;54;20155;-78
2023/07/14 02:10:40;;;;;;;9.50;7.07;;;14.00;99.90;;;;;;2627175;54;20385;-80
2023/07/14 02:16:28;;;;;;;11.57;6.80;;;13.90;99.90;;;;;;2623750;54;20379;-83
2023/07/14 02:25:44;;;;;;;15.07;8.23;;;13.70;99.90;;;;;;2629732;54;20461;-84
2023/07/14 02:44:15;;;;;;;17.80;8.67;;;13.70;99.90;;;;;;2618782;54;20387;-81
2023/07/14 02:50:04;;;;;;;11.07;7.70;;;13.70;99.90;;;;;;2618488;54;20391;-81
2023/07/14 02:55:52;;;;;;;9.10;8.00;;;13.70;99.90;;;;;;2616262;54;20394;-76
2023/07/14 03:01:40;;;;;;;12.23;8.97;;;13.80;99.90;;;;;;2616195;54;20133;-75
2023/07/14 03:07:28;;;;;;;15.40;8.87;;;13.80;99.90;;;;;;2616263;54;20150;-77
2023/07/14 03:13:16;;;;;;;11.13;8.30;;;13.70;99.90;;;;;;2615050;54;20147;-78
2023/07/14 03:19:04;;;;;;;11.13;9.43;;;13.70;99.90;;;;;;2615909;54;20399;-79
2023/07/14 03:24:52;;;;;;;9.83;7.63;;;13.60;99.90;;;;;;2612944;54;20151;-77
2023/07/14 03:30:41;;;;;;;12.87;8.63;;;13.40;99.90;;;;;;2615878;54;20131;-75
2023/07/14 03:36:29;;;;;;;10.80;8.00;;;13.30;99.90;;;;;;2615696;54;20408;-75
2023/07/14 03:42:17;;;;;;;7.83;6.93;;;13.20;99.90;;;;;;2616129;39;20647;-75
2023/07/14 03:48:05;;;;;;;10.00;8.17;;;13.30;99.90;;;;;;2616562;54;20487;-75
2023/07/14 03:53:53;;;;;;;9.70;8.17;;;13.60;99.90;;;;;;2615485;54;20415;-76
2023/07/14 03:59:41;;;;;;;12.60;7.43;;;14.10;99.90;;;;;;2615092;54;20131;-75
2023/07/14 04:05:29;;;;;;;9.33;8.07;;;14.60;99.90;;;;;;2615137;54;20158;-76
2023/07/14 04:11:17;;;;;;;9.40;7.00;;;14.80;99.90;;;;;;2615262;54;20155;-77
2023/07/14 04:17:04;;;;;;;9.23;7.20;;;14.90;99.90;;;;;;2614903;46;20418;-77
2023/07/14 04:26:18;;;;;;;8.73;7.10;;;15.20;99.90;;;;;;2614418;54;20445;-77
2023/07/14 04:32:06;;;;;;;10.93;7.30;;;15.40;99.90;;;;;;2620001;54;20367;-81
2023/07/14 04:37:54;;;;;;;12.93;7.40;;;15.70;99.90;;;;;;2627986;54;20394;-81
2023/07/14 04:43:43;;;;;;;12.07;7.50;;;15.90;99.90;;;;;;2628865;54;20126;-82
2023/07/14 04:49:30;;;;;;;12.43;6.60;;;16.00;99.90;;;;;;2629658;54;20160;-82
2023/07/14 04:55:19;;;;;;;7.40;5.80;;;16.00;99.90;;;;;;2627278;54;20144;-83
2023/07/14 05:01:08;;;;;;;7.27;5.20;;;16.00;99.90;;;;;;2627858;54;20432;-82
2023/07/14 05:06:56;;;;;;;8.67;6.87;;;16.20;99.90;;;;;;2621863;54;20395;-84
2023/07/14 05:12:45;;;;;;;11.93;6.77;;;16.30;99.90;;;;;;2622884;46;20172;-83
2023/07/14 05:18:34;;;;;;;11.93;6.40;;;16.70;99.90;;;;;;2619786;54;20394;-82
2023/07/14 05:21:48;;;;;;;5.47;4.97;;;16.80;99.90;;;;;;2618147;54;20451;-82
2023/07/14 05:24:14;;;;;;;10.57;6.97;;;16.70;99.90;;;;;;2627502;47;20422;-84
2023/07/14 05:30:03;;;;;;;6.17;5.60;;;17.00;99.90;;;;;;2627403;54;20106;-83
2023/07/14 05:35:51;;;;;;;14.10;6.40;;;17.10;99.90;;;;;;2629215;54;20426;-83
2023/07/14 05:41:39;;;;;;;9.37;6.47;;;17.30;99.90;;;;;;2628116;54;20417;-83
2023/07/14 05:47:29;;;;;;;6.27;5.57;;;17.40;99.90;;;;;;2628478;54;20126;-83
2023/07/14 05:55:55;;;;;;;6.17;5.63;;;17.30;99.90;;;;;;2614071;54;20355;-73
2023/07/14 06:01:47;;;;;;;7.80;5.43;;;17.80;99.90;;;;;;2614334;54;20416;-71
2023/07/14 06:07:35;;;;;;;8.40;6.17;;;17.90;99.90;;;;;;2613973;54;20420;-72
2023/07/14 06:10:38;;;;;;;8.60;5.90;;;18.50;99.90;;;;;;2612934;54;20427;-71
2023/07/14 06:13:04;;;;;;;11.37;7.40;;;18.90;99.90;;;;;;2607396;54;20515;-71
2023/07/14 06:18:52;;;;;;;7.10;6.43;;;19.50;99.90;;;;;;2613046;54;20161;-71
2023/07/14 06:24:40;;;;;;;7.40;6.83;;;19.70;99.90;;;;;;2610776;54;20735;-72
2023/07/14 06:30:28;;;;;;;7.30;6.80;;;20.10;99.90;;;;;;2609030;54;20123;-71
2023/07/14 06:36:16;;;;;;;7.57;6.97;;;20.00;99.90;;;;;;2611610;54;20146;-71
2023/07/14 06:42:04;;;;;;;8.60;7.90;;;20.60;99.90;;;;;;2606622;54;20137;-70
2023/07/14 06:47:52;;;;;;;7.60;7.10;;;20.70;99.90;;;;;;2608513;54;20375;-71
2023/07/14 06:57:08;;;;;;;8.20;7.23;;;21.40;99.90;;;;;;2613169;54;20375;-72
2023/07/14 07:02:56;;;;;;;8.53;7.83;;;21.90;99.90;;;;;;2613624;54;21016;-71
2023/07/14 07:08:45;;;;;;;7.90;7.30;;;21.90;99.90;;;;;;2611934;54;20956;-71
2023/07/14 07:14:32;;;;;;;7.53;7.13;;;21.40;97.40;;;;;;2612212;54;20366;-71
2023/07/14 07:20:20;;;;;;;8.23;7.63;;;22.10;91.70;;;;;;2612228;54;20134;-72
2023/07/14 07:26:08;;;;;;;8.07;7.57;;;22.60;56.70;;;;;;2611319;54;20730;-72
2023/07/14 07:31:57;;;;;;;9.87;9.07;;;21.80;71.40;;;;;;2615128;54;20422;-71
2023/07/14 07:37:44;;;;;;;10.87;9.93;;;22.10;69.30;;;;;;2614933;54;21070;-72
2023/07/14 07:43:32;;;;;;;10.33;9.73;;;22.00;54.80;;;;;;2613773;54;20183;-72
2023/07/14 07:49:20;;;;;;;9.37;8.87;;;22.20;44.40;;;;;;2613333;54;20176;-72
2023/07/14 07:52:37;;;;;;;10.10;9.60;;;22.70;34.70;;;;;;2612255;54;20444;-72
2023/07/14 07:55:04;;;;;;;11.13;10.30;;;22.20;20.10;;;;;;2613446;54;20143;-72
2023/07/14 08:00:59;;;;;;;11.57;10.50;;;23.00;16.50;;;;;;2612593;54;20474;-71
2023/07/14 08:06:47;;;;;;;12.60;11.87;;;23.10;9.00;;;;;;2614330;39;20756;-72
2023/07/14 08:12:34;;;;;;;11.37;10.70;;;23.60;3.70;;;;;;2614093;54;20123;-72
2023/07/14 08:18:23;;;;;;;11.70;11.00;;;23.20;10.00;;;;;;2614095;39;20539;-72
2023/07/14 08:24:11;;;;;;;12.13;11.23;;;24.10;1.00;;;;;;2614137;54;20487;-71
2023/07/14 08:29:59;;;;;;;11.47;10.70;;;25.00;1.00;;;;;;2613842;54;20168;-72
2023/07/14 08:35:55;;;;;;;11.80;11.20;;;25.20;1.00;;;;;;2614435;39;20552;-73
2023/07/14 08:41:46;;;;;;;13.27;12.47;;;24.30;1.00;;;;;;2613849;54;20413;-72
2023/07/14 08:57:49;;;;;;;12.77;12.17;;;24.40;1.00;;;;;;2612016;54;20368;-71
2023/07/14 09:03:46;;;;;;;13.23;12.60;;;25.60;1.00;;;;;;2609081;54;20403;-72
2023/07/14 09:09:39;;;;;;;13.30;12.50;;;26.20;1.00;;;;;;2612160;54;20469;-72
2023/07/14 09:15:27;;;;;;;15.63;13.20;;;25.70;1.00;;;;;;2612367;54;20430;-72
2023/07/14 09:21:39;;;;;;;13.57;12.77;;;26.10;1.00;;;;;;2609574;54;20407;-71
2023/07/14 09:27:30;;;;;;;11.40;10.83;;;25.50;1.00;;;;;;2610562;54;20394;-72
2023/07/14 09:33:20;;;;;;;13.50;12.80;;;26.20;1.00;;;;;;2613029;54;20391;-72
2023/07/14 09:52:21;;;;;;;13.73;13.03;;;25.60;1.00;;;;;;2610427;54;20391;-72
2023/07/14 09:58:13;;;;;;;14.27;13.47;;;25.70;1.00;;;;;;2610355;39;20519;-71
2023/07/14 10:00:54;;;;;;;14.90;14.00;;;26.30;1.00;;;;;;2609366;54;20506;-72
2023/07/14 10:06:42;;;;;;;14.60;14.00;;;26.50;1.00;;;;;;2608704;54;20391;-71
2023/07/14 10:19:04;;;;;;;15.10;14.17;;;25.30;1.00;;;;;;2610342;54;20501;-72
2023/07/14 10:24:58;;;;;;;14.43;13.63;;;26.70;1.00;;;;;;2613590;54;20948;-72
2023/07/14 10:37:24;;;;;;;13.23;12.63;;;25.70;1.00;;;;;;2612560;54;20949;-71
2023/07/14 11:03:17;;;;;;;15.37;14.47;;;27.00;1.00;;;;;;2613339;54;21040;-71
2023/07/14 11:09:11;;;;;;;15.07;13.97;;;26.90;1.00;;;;;;2610779;54;20395;-71
2023/07/14 11:28:02;;;;;;;15.80;14.70;;;27.10;1.00;;;;;;2611457;54;20391;-72
2023/07/14 11:33:54;;;;;;;16.30;15.50;;;26.70;1.00;;;;;;2610676;54;20988;-71
2023/07/14 11:39:48;;;;;;;16.57;15.50;;;26.80;1.00;;;;;;2611682;54;20399;-71
2023/07/14 11:45:36;;;;;;;15.13;14.37;;;26.30;1.00;;;;;;2610494;54;20416;-69
2023/07/14 12:08:06;;;;;;;15.30;14.40;;;27.10;1.00;;;;;;2610390;54;21215;-71
2023/07/14 12:13:53;;;;;;;14.53;13.83;;;26.50;1.00;;;;;;2612146;54;21039;-71
2023/07/14 12:19:54;;;;;;;15.07;14.37;;;27.30;1.00;;;;;;2611960;54;20282;-73
2023/07/14 12:25:48;;;;;;;16.43;15.30;;;26.90;1.00;;;;;;2609973;54;20387;-73
2023/07/14 12:31:36;;;;;;;15.03;14.33;;;28.30;1.00;;;;;;2614181;54;20374;-70
2023/07/14 12:37:23;;;;;;;14.53;13.83;;;28.90;1.00;;;;;;2614282;54;20383;-70
2023/07/14 12:49:50;;;;;;;14.77;13.97;;;28.90;1.00;;;;;;2613550;54;20448;-71
2023/07/14 12:55:37;;;;;;;15.20;14.10;;;28.80;1.00;;;;;;2612774;54;20399;-71
2023/07/14 13:01:25;;;;;;;16.00;14.70;;;27.30;1.00;;;;;;2612679;39;20559;-71
2023/07/14 13:07:20;;;;;;;15.33;14.50;;;27.70;1.00;;;;;;2613145;54;20663;-71
2023/07/14 13:19:35;;;;;;;15.90;14.90;;;26.70;1.00;;;;;;2609774;54;21058;-71
2023/07/14 13:25:26;;;;;;;15.30;14.50;;;27.10;1.00;;;;;;2613458;54;20977;-71
2023/07/14 13:31:20;;;;;;;16.50;15.30;;;27.50;1.00;;;;;;2612119;54;20475;-71
2023/07/14 13:37:11;;;;;;;14.83;14.10;;;28.40;1.00;;;;;;2612989;54;20476;-71
2023/07/14 13:43:02;;;;;;;14.97;13.97;;;28.60;1.00;;;;;;2613070;54;20388;-72
2023/07/14 13:55:22;;;;;;;14.70;13.90;;;29.50;1.00;;;;;;2613832;54;21047;-71
2023/07/14 14:01:12;;;;;;;14.47;13.30;;;30.00;1.00;;;;;;2613853;54;20434;-72
2023/07/14 14:04:25;;;;;;;14.60;13.80;;;29.80;1.00;;;;;;2613863;39;20825;-71
2023/07/14 14:10:16;;;;;;;14.23;13.33;;;29.80;1.00;;;;;;2613351;54;20390;-71
2023/07/14 14:16:11;;;;;;;14.23;13.43;;;30.20;1.00;;;;;;2614612;54;20495;-71
2023/07/14 14:22:02;;;;;;;15.20;14.30;;;28.50;1.00;;;;;;2613762;54;20371;-72
2023/07/14 14:27:51;;;;;;;14.70;14.00;;;28.80;1.00;;;;;;2614011;54;20398;-70
2023/07/14 14:33:39;;;;;;;14.73;13.83;;;28.80;1.00;;;;;;2614372;54;20415;-72
2023/07/14 14:39:28;;;;;;;14.73;14.03;;;28.70;1.00;;;;;;2614258;54;20924;-71
2023/07/14 14:45:24;;;;;;;15.40;14.20;;;29.40;1.00;;;;;;2612673;39;20782;-71
2023/07/14 14:51:12;;;;;;;14.97;14.00;;;29.30;1.00;;;;;;2614285;54;20355;-72
2023/07/14 14:56:59;;;;;;;14.43;13.20;;;29.40;1.00;;;;;;2613824;54;20133;-71
2023/07/14 14:59:54;;;;;;;14.50;13.80;;;29.50;1.00;;;;;;2614276;54;20428;-71
2023/07/14 15:02:19;;;;;;;14.20;13.50;;;29.20;1.00;;;;;;2612787;54;20174;-71
2023/07/14 15:08:10;;;;;;;14.97;13.97;;;29.30;1.00;;;;;;2612807;54;20158;-71
2023/07/14 15:14:03;;;;;;;15.00;14.20;;;29.20;1.00;;;;;;2613478;54;20395;-71
2023/07/14 15:19:52;;;;;;;14.50;13.70;;;28.60;1.00;;;;;;2612380;54;20427;-71
2023/07/14 15:25:43;;;;;;;14.87;13.87;;;28.80;1.00;;;;;;2613186;54;20398;-71
2023/07/14 15:31:31;;;;;;;17.60;16.47;;;28.10;1.00;;;;;;2613108;54;20407;-70
2023/07/14 15:37:19;;;;;;;14.10;13.10;;;28.40;1.00;;;;;;2611690;54;20250;-73
2023/07/14 15:49:40;;;;;;;15.03;13.90;;;28.60;1.00;;;;;;2613765;39;20786;-72
2023/07/14 15:52:43;;;;;;;15.10;14.10;;;28.10;1.00;;;;;;2612857;54;20403;-72
2023/07/14 15:55:17;;;;;;;16.20;15.40;;;27.80;1.00;;;;;;2614439;54;20174;-71
2023/07/14 16:04:27;;;;;;;16.47;15.57;;;27.50;1.00;;;;;;2614420;54;20392;-71
2023/07/14 16:10:17;;;;;;;15.60;14.70;;;27.80;1.00;;;;;;2614518;54;20700;-70
2023/07/14 16:16:09;;;;;;;15.70;14.60;;;27.70;1.00;;;;;;2614693;54;20386;-72
2023/07/14 16:21:57;;;;;;;16.17;15.20;;;27.50;1.00;;;;;;2614906;54;20395;-70
2023/07/14 16:27:44;;;;;;;16.33;15.43;;;27.60;1.00;;;;;;2614850;54;20771;-72
2023/07/14 16:33:32;;;;;;;15.90;14.73;;;27.50;1.00;;;;;;2614934;39;20553;-71
2023/07/14 16:39:27;;;;;;;15.30;14.50;;;27.50;1.00;;;;;;2614456;54;20126;-71
2023/07/14 16:45:18;;;;;;;14.77;13.87;;;26.90;1.00;;;;;;2614027;54;20393;-71
2023/07/14 16:51:12;;;;;;;14.13;13.33;;;27.10;1.00;;;;;;2614636;54;20414;-72
2023/07/14 16:57:00;;;;;;;15.07;14.33;;;27.20;1.00;;;;;;2614426;54;20395;-71
2023/07/14 17:09:39;;;;;;;14.70;13.90;;;27.90;1.00;;;;;;2612117;54;20394;-71
2023/07/14 17:15:28;;;;;;;15.87;14.77;;;27.50;1.00;;;;;;2610737;54;20134;-71
2023/07/14 17:21:17;;;;;;;15.33;14.53;;;27.10;1.00;;;;;;2611914;54;20391;-70
2023/07/14 17:27:04;;;;;;;15.40;14.50;;;27.50;1.00;;;;;;2612551;54;21036;-71
2023/07/14 17:32:55;;;;;;;14.40;13.70;;;27.80;1.00;;;;;;2609572;54;20162;-71
2023/07/14 17:38:42;;;;;;;16.13;15.43;;;27.40;1.00;;;;;;2612965;54;20951;-71
2023/07/14 17:44:30;;;;;;;15.80;14.90;;;27.00;1.00;;;;;;2613071;54;20130;-71
2023/07/14 17:50:20;;;;;;;16.23;15.07;;;26.90;1.00;;;;;;2613961;54;20965;-71
2023/07/14 17:56:07;;;;;;;15.63;14.83;;;26.80;1.00;;;;;;2614598;39;20445;-72
2023/07/14 18:05:20;;;;;;;14.27;13.67;;;26.70;1.00;;;;;;2614004;54;21455;-72
2023/07/14 18:17:26;;;;;;;15.87;14.67;;;26.10;1.00;;;;;;2613415;54;20391;-70
2023/07/14 18:23:23;;;;;;;15.90;14.87;;;26.00;1.00;;;;;;2612187;54;20130;-71
2023/07/14 18:29:13;;;;;;;15.97;14.80;;;26.00;1.00;;;;;;2613127;54;20359;-72
2023/07/14 18:35:01;;;;;;;15.43;14.73;;;25.80;1.00;;;;;;2613230;54;20495;-71
2023/07/14 18:40:51;;;;;;;16.40;15.20;;;25.50;1.00;;;;;;2613867;39;20790;-72
2023/07/14 18:46:40;;;;;;;15.33;14.53;;;25.40;1.00;;;;;;2613814;54;20368;-71
2023/07/14 18:52:27;;;;;;;16.07;14.90;;;25.50;1.00;;;;;;2614145;54;20397;-71
2023/07/14 18:58:17;;;;;;;15.53;14.80;;;25.20;1.00;;;;;;2611110;54;20154;-70
2023/07/14 19:07:28;;;;;;;16.37;15.33;;;25.00;1.00;;;;;;2613297;54;20395;-70
2023/07/14 19:13:19;;;;;;;16.33;15.43;;;24.80;1.00;;;;;;2613554;54;20395;-72
2023/07/14 19:25:40;;;;;;;17.83;16.33;;;24.50;1.00;;;;;;2613678;54;20423;-71
2023/07/14 19:31:31;;;;;;;17.50;16.60;;;24.30;1.00;;;;;;2614399;54;20154;-70
2023/07/14 19:37:19;;;;;;;16.13;15.33;;;24.10;1.00;;;;;;2613963;46;20492;-72
2023/07/14 19:43:14;;;;;;;15.73;15.13;;;23.70;1.00;;;;;;2613748;54;20423;-70
2023/07/14 19:49:02;;;;;;;16.30;15.50;;;23.30;1.00;;;;;;2613845;54;20395;-71
2023/07/14 19:54:49;;;;;;;17.67;16.67;;;23.30;1.00;;;;;;2613509;54;20127;-71
2023/07/14 20:00:41;;;;;;;16.10;15.40;;;23.30;1.00;;;;;;2612756;54;20407;-71
2023/07/14 20:06:29;;;;;;;16.87;15.90;;;23.20;1.00;;;;;;2612563;39;20765;-72
2023/07/14 20:12:18;;;;;;;17.23;16.20;;;23.30;1.00;;;;;;2614475;54;20144;-71
2023/07/14 20:21:55;;;;;;;16.90;16.00;;;23.00;1.00;;;;;;2612348;54;21603;-71
2023/07/14 20:24:22;;;;;;;16.90;16.00;;;22.90;1.00;;;;;;2611931;54;20930;-71
2023/07/14 20:30:18;;;;;;;17.60;16.80;;;22.80;1.00;;;;;;2611814;54;20399;-72
2023/07/14 20:36:09;;;;;;;17.60;16.60;;;22.60;1.00;;;;;;2612472;39;20844;-70
2023/07/14 20:41:57;;;;;;;17.93;16.90;;;22.30;1.00;;;;;;2611035;39;21124;-71
2023/07/14 20:47:44;;;;;;;17.33;16.40;;;22.30;1.00;;;;;;2611174;39;20551;-71
2023/07/14 20:53:31;;;;;;;17.53;16.73;;;22.30;1.00;;;;;;2611362;54;20142;-71
2023/07/14 20:59:18;;;;;;;18.23;17.23;;;22.30;1.00;;;;;;2613969;54;20380;-70
2023/07/14 21:05:06;;;;;;;17.80;16.87;;;22.10;1.00;;;;;;2613958;54;20294;-71
2023/07/14 21:11:09;;;;;;;16.90;16.10;;;22.00;1.00;;;;;;2613746;54;20403;-71
2023/07/14 21:16:57;;;;;;;18.20;17.30;;;22.00;1.00;;;;;;2612620;39;24402;-71
2023/07/14 21:22:44;;;;;;;18.57;17.43;;;21.90;1.00;;;;;;2614032;39;20671;-72
2023/07/14 21:28:33;;;;;;;16.80;15.90;;;21.80;1.00;;;;;;2612625;54;20153;-71
2023/07/14 21:34:21;;;;;;;17.33;16.27;;;21.80;1.00;;;;;;2613426;54;20360;-70
2023/07/14 21:40:14;;;;;;;16.90;16.10;;;21.70;1.00;;;;;;2614382;54;20399;-71
2023/07/14 21:46:03;;;;;;;17.03;16.33;;;21.70;1.00;;;;;;2614713;39;20746;-72
2023/07/14 21:51:53;;;;;;;17.00;16.30;;;21.60;1.00;;;;;;2613595;54;20423;-71
2023/07/14 21:57:41;;;;;;;18.13;17.13;;;21.50;1.00;;;;;;2614491;54;20379;-71
2023/07/14 22:17:14;;;;;;;17.60;16.60;;;21.50;1.00;;;;;;2610014;54;20429;-71
2023/07/14 22:23:01;;;;;;;17.93;17.17;;;21.90;1.00;;;;;;2611748;39;20699;-72
2023/07/14 22:28:49;;;;;;;18.10;17.10;;;22.50;1.00;;;;;;2612651;54;20793;-71
2023/07/14 22:34:36;;;;;;;17.80;16.67;;;22.80;1.00;;;;;;2611627;54;20375;-71
2023/07/14 22:40:24;;;;;;;18.00;17.23;;;23.00;1.00;;;;;;2612749;54;20153;-71
2023/07/14 22:46:11;;;;;;;17.33;16.37;;;23.40;1.00;;;;;;2611793;54;20150;-71
2023/07/14 22:51:59;;;;;;;18.83;17.73;;;23.70;1.00;;;;;;2610241;54;20175;-72
2023/07/14 22:57:48;;;;;;;17.40;16.60;;;23.80;1.00;;;;;;2613946;39;20635;-72
2023/07/14 23:07:22;;;;;;;18.20;17.30;;;24.10;1.00;;;;;;2614903;39;20884;-73
2023/07/14 23:13:15;;;;;;;17.87;16.87;;;24.00;1.00;;;;;;2614047;54;20449;-72
2023/07/14 23:19:04;;;;;;;17.83;16.97;;;24.00;1.00;;;;;;2613772;54;20408;-72
2023/07/14 23:24:52;;;;;;;18.00;17.10;;;23.80;1.00;;;;;;2614425;54;20519;-73
2023/07/14 23:30:40;;;;;;;17.70;16.90;;;23.70;1.00;;;;;;2614336;39;20707;-73
2023/07/14 23:36:28;;;;;;;18.30;17.27;;;23.70;1.00;;;;;;2613993;54;20383;-73
2023/07/14 23:42:16;;;;;;;18.00;17.20;;;23.80;1.00;;;;;;2613553;54;21382;-73
2023/07/14 23:48:11;;;;;;;18.27;17.17;;;23.90;1.00;;;;;;2614843;54;20151;-72
2023/07/14 23:53:59;;;;;;;18.37;17.23;;;23.70;1.00;;;;;;2613545;54;20970;-72
2023/07/14 23:59:47;;;;;;;17.80;17.10;;;23.80;1.00;;;;;;2614079;54;20550;-72
